createdAt,value
2019-04-21T00:01:10.561Z,100321.00
2019-04-21T00:03:23.561Z,100332.00
2019-04-21T00:05:40.106Z,100321.00
2019-04-21T00:07:52.758Z,100319.00
2019-04-21T00:10:04.041Z,100314.00
2019-04-21T00:12:05.972Z,100319.00
2019-04-21T00:14:02.167Z,100314.00
2019-04-21T00:16:00.257Z,100317.00
2019-04-21T00:18:14.396Z,100311.00
2019-04-21T00:20:32.305Z,100306.00
2019-04-21T00:22:41.284Z,100301.00
2019-04-21T00:24:50.743Z,100303.00
2019-04-21T00:27:03.806Z,100304.00
2019-04-21T00:29:16.505Z,100286.00
2019-04-21T00:31:16.991Z,100306.00
2019-04-21T00:33:13.884Z,100297.00
2019-04-21T00:35:18.765Z,100282.00
2019-04-21T00:37:30.239Z,100290.00
2019-04-21T00:39:56.990Z,100283.00
2019-04-21T00:41:55.851Z,100279.00
2019-04-21T00:43:55.727Z,100281.00
2019-04-21T00:45:57.480Z,100263.00
2019-04-21T00:48:16.561Z,100272.00
2019-04-21T00:50:24.808Z,100273.00
2019-04-21T00:55:01.758Z,100275.00
2019-04-21T00:56:56.227Z,100261.00
2019-04-21T00:58:59.733Z,100260.00
2019-04-21T01:01:12.201Z,100258.00
2019-04-21T01:03:20.565Z,100258.00
2019-04-21T01:05:26.681Z,100256.00
2019-04-21T01:07:37.079Z,100256.00
2019-04-21T01:09:38.570Z,100245.00
2019-04-21T01:11:51.899Z,100245.00
2019-04-21T01:13:57.997Z,100237.00
2019-04-21T01:16:10.157Z,100241.00
2019-04-21T01:18:09.234Z,100244.00
2019-04-21T01:20:13.013Z,100245.00
2019-04-21T01:22:05.568Z,100243.00
2019-04-21T01:24:19.103Z,100239.00
2019-04-21T01:26:32.579Z,100233.00
2019-04-21T01:28:39.945Z,100236.00
2019-04-21T01:30:54.327Z,100238.00
2019-04-21T01:32:59.289Z,100237.00
2019-04-21T01:35:10.068Z,100243.00
2019-04-21T01:37:10.562Z,100229.00
2019-04-21T01:39:21.311Z,100236.00
2019-04-21T01:41:33.256Z,100233.00
2019-04-21T01:43:33.498Z,100232.00
2019-04-21T01:45:37.655Z,100231.00
2019-04-21T01:47:48.953Z,100235.00
2019-04-21T01:49:47.823Z,100234.00
2019-04-21T01:52:18.688Z,100230.00
2019-04-21T01:54:14.692Z,100233.00
2019-04-21T01:56:38.949Z,100233.00
2019-04-21T01:58:38.773Z,100224.00
2019-04-21T02:01:00.778Z,100234.00
2019-04-21T02:03:40.617Z,100221.00
2019-04-21T02:05:34.409Z,100229.00
2019-04-21T02:07:33.997Z,100191.00
2019-04-21T02:09:44.818Z,100219.00
2019-04-21T02:11:52.007Z,100215.00
2019-04-21T02:14:07.410Z,100218.00
2019-04-21T02:16:07.948Z,100218.00
2019-04-21T02:18:06.656Z,100211.00
2019-04-21T02:20:12.204Z,100209.00
2019-04-21T02:22:27.390Z,100209.00
2019-04-21T02:24:51.613Z,100208.00
2019-04-21T02:26:41.197Z,100205.00
2019-04-21T02:28:50.506Z,100213.00
2019-04-21T02:33:16.228Z,100216.00
2019-04-21T02:35:20.821Z,100211.00
2019-04-21T02:39:31.739Z,100206.00
2019-04-21T02:41:45.604Z,100208.00
2019-04-21T02:43:44.902Z,100203.00
2019-04-21T02:45:56.305Z,100201.00
2019-04-21T02:48:06.907Z,100206.00
2019-04-21T02:50:13.430Z,100201.00
2019-04-21T02:54:41.752Z,100202.00
2019-04-21T02:56:46.066Z,100194.00
2019-04-21T02:58:44.110Z,100198.00
2019-04-21T03:01:07.465Z,100188.00
2019-04-21T03:03:36.468Z,100193.00
2019-04-21T03:05:58.641Z,100187.00
2019-04-21T03:08:07.145Z,100184.00
2019-04-21T03:10:18.270Z,100185.00
2019-04-21T03:12:18.112Z,100179.00
2019-04-21T03:14:40.927Z,100172.00
2019-04-21T03:16:32.925Z,100172.00
2019-04-21T03:18:54.105Z,100167.00
2019-04-21T03:20:54.890Z,100167.00
2019-04-21T03:23:00.369Z,100162.00
2019-04-21T03:27:23.255Z,100159.00
2019-04-21T03:29:20.236Z,100155.00
2019-04-21T03:32:03.985Z,100153.00
2019-04-21T03:37:47.747Z,100154.00
2019-04-21T03:40:07.251Z,100147.00
2019-04-21T03:42:11.358Z,100145.00
2019-04-21T03:44:11.958Z,100143.00
2019-04-21T03:46:15.957Z,100151.00
2019-04-21T03:50:39.822Z,100142.00
2019-04-21T03:52:48.234Z,100133.00
2019-04-21T03:57:46.683Z,100136.00
2019-04-21T03:59:48.785Z,100133.00
2019-04-21T04:02:08.230Z,100132.00
2019-04-21T04:09:09.677Z,100139.00
2019-04-21T04:11:23.047Z,100131.00
2019-04-21T04:13:19.709Z,100133.00
2019-04-21T04:15:34.755Z,100137.00
2019-04-21T04:17:36.644Z,100138.00
2019-04-21T04:21:56.429Z,100129.00
2019-04-21T04:23:51.327Z,100123.00
2019-04-21T04:26:01.693Z,100133.00
2019-04-21T04:28:08.245Z,100132.00
2019-04-21T04:32:25.192Z,100139.00
2019-04-21T04:34:29.217Z,100136.00
2019-04-21T04:38:52.107Z,100130.00
2019-04-21T04:41:19.211Z,100142.00
2019-04-21T04:45:32.350Z,100130.00
2019-04-21T04:47:32.505Z,100133.00
2019-04-21T04:53:46.876Z,100126.00
2019-04-21T04:56:08.081Z,100130.00
2019-04-21T05:02:27.717Z,100121.00
2019-04-21T05:04:37.921Z,100130.00
2019-04-21T05:13:04.306Z,100123.00
2019-04-21T05:17:14.175Z,100132.00
2019-04-21T05:19:20.980Z,100131.00
2019-04-21T05:23:24.399Z,100118.00
2019-04-21T05:25:27.780Z,100124.00
2019-04-21T05:27:43.303Z,100117.00
2019-04-21T05:30:01.903Z,100116.00
2019-04-21T05:32:20.072Z,100111.00
2019-04-21T05:34:27.712Z,100121.00
2019-04-21T05:36:46.840Z,100111.00
2019-04-21T05:39:14.846Z,100119.00
2019-04-21T05:41:18.196Z,100110.00
2019-04-21T05:43:35.257Z,100107.00
2019-04-21T05:45:41.180Z,100109.00
2019-04-21T05:48:11.686Z,100112.00
2019-04-21T05:50:14.613Z,100102.00
2019-04-21T05:52:19.149Z,100109.00
2019-04-21T05:54:29.877Z,100106.00
2019-04-21T05:56:37.912Z,100107.00
2019-04-21T05:58:37.808Z,100098.00
2019-04-21T06:03:11.571Z,100106.00
2019-04-21T06:05:20.626Z,100105.00
2019-04-21T06:09:32.022Z,100104.00
2019-04-21T06:11:30.539Z,100095.00
2019-04-21T06:13:48.262Z,100089.00
2019-04-21T06:16:03.566Z,100095.00
2019-04-21T06:17:59.320Z,100096.00
2019-04-21T06:20:10.461Z,100091.00
2019-04-21T06:22:07.633Z,100081.00
2019-04-21T06:24:17.614Z,100085.00
2019-04-21T06:28:33.648Z,100085.00
2019-04-21T06:30:59.405Z,100086.00
2019-04-21T06:37:36.064Z,100088.00
2019-04-21T06:39:27.972Z,100087.00
2019-04-21T06:41:31.564Z,100081.00
2019-04-21T06:43:41.310Z,100081.00
2019-04-21T06:45:47.293Z,100080.00
2019-04-21T06:47:51.324Z,100073.00
2019-04-21T06:49:54.210Z,100080.00
2019-04-21T06:52:08.884Z,100080.00
2019-04-21T06:54:18.377Z,100076.00
2019-04-21T06:56:21.799Z,100070.00
2019-04-21T06:58:25.240Z,100062.00
2019-04-21T07:00:33.080Z,100061.00
2019-04-21T07:03:03.660Z,100058.00
2019-04-21T07:04:56.833Z,100066.00
2019-04-21T07:06:54.952Z,100064.00
2019-04-21T07:09:12.621Z,100064.00
2019-04-21T07:11:08.438Z,100055.00
2019-04-21T07:13:16.912Z,100064.00
2019-04-21T07:15:28.476Z,100061.00
2019-04-21T07:17:30.653Z,100056.00
2019-04-21T07:19:40.943Z,100050.00
2019-04-21T07:21:46.382Z,100051.00
2019-04-21T07:23:57.229Z,100047.00
2019-04-21T07:26:00.932Z,100051.00
2019-04-21T07:28:03.086Z,100049.00
2019-04-21T07:30:17.661Z,100049.00
2019-04-21T07:32:18.384Z,100039.00
2019-04-21T07:34:28.107Z,100040.00
2019-04-21T07:36:42.351Z,100031.00
2019-04-21T07:38:36.218Z,100030.00
2019-04-21T07:40:40.036Z,100026.00
2019-04-21T07:42:47.763Z,100034.00
2019-04-21T07:44:52.277Z,100031.00
2019-04-21T07:47:06.110Z,100028.00
2019-04-21T07:49:43.592Z,100024.00
2019-04-21T07:51:50.723Z,100022.00
2019-04-21T07:54:02.299Z,100012.00
2019-04-21T07:55:46.973Z,100024.00
2019-04-21T07:58:13.017Z,100003.00
2019-04-21T08:00:30.868Z,100017.00
2019-04-21T08:02:22.196Z,100016.00
2019-04-21T08:06:40.581Z,100004.00
2019-04-21T08:08:48.969Z,99990.00
2019-04-21T08:10:52.344Z,99998.00
2019-04-21T08:12:59.507Z,99992.00
2019-04-21T08:15:18.109Z,99990.00
2019-04-21T08:17:16.379Z,99982.00
2019-04-21T08:19:25.207Z,99984.00
2019-04-21T08:21:28.044Z,99986.00
2019-04-21T08:23:37.029Z,99983.00
2019-04-21T08:25:52.990Z,99987.00
2019-04-21T08:27:56.867Z,99979.00
2019-04-21T08:30:01.673Z,99980.00
2019-04-21T08:34:17.058Z,99980.00
2019-04-21T08:36:25.097Z,99979.00
2019-04-21T08:38:31.432Z,99980.00
2019-04-21T08:40:57.361Z,99976.00
2019-04-21T08:42:38.279Z,99978.00
2019-04-21T08:44:47.987Z,99980.00
2019-04-21T08:46:58.755Z,99976.00
2019-04-21T08:49:03.336Z,99973.00
2019-04-21T08:51:23.977Z,99968.00
2019-04-21T08:53:12.548Z,99969.00
2019-04-21T08:55:44.015Z,99962.00
2019-04-21T08:58:02.399Z,99968.00
2019-04-21T09:00:16.367Z,99965.00
2019-04-21T09:02:29.461Z,99961.00
2019-04-21T09:04:30.587Z,99959.00
2019-04-21T09:06:54.127Z,99966.00
2019-04-21T09:08:53.305Z,99961.00
2019-04-21T09:10:54.837Z,99958.00
2019-04-21T09:13:00.228Z,99959.00
2019-04-21T09:15:08.402Z,99953.00
2019-04-21T09:17:10.860Z,99961.00
2019-04-21T09:19:35.456Z,99943.00
2019-04-21T09:21:33.992Z,99945.00
2019-04-21T09:23:36.433Z,99952.00
2019-04-21T09:25:46.482Z,99942.00
2019-04-21T09:27:46.747Z,99934.00
2019-04-21T09:29:46.675Z,99934.00
2019-04-21T09:31:48.216Z,99936.00
2019-04-21T09:33:56.974Z,99939.00
2019-04-21T09:36:04.362Z,99945.00
2019-04-21T09:38:18.698Z,99936.00
2019-04-21T09:40:16.852Z,99931.00
2019-04-21T09:42:27.055Z,99932.00
2019-04-21T09:44:33.341Z,99929.00
2019-04-21T09:46:41.777Z,99932.00
2019-04-21T09:48:49.579Z,99936.00
2019-04-21T09:50:50.401Z,99922.00
2019-04-21T09:53:03.985Z,99919.00
2019-04-21T09:55:09.973Z,99920.00
2019-04-21T09:57:24.397Z,99916.00
2019-04-21T09:59:26.188Z,99909.00
2019-04-21T10:01:29.893Z,99916.00
2019-04-21T10:03:37.164Z,99917.00
2019-04-21T10:05:38.659Z,99912.00
2019-04-21T10:07:44.313Z,99908.00
2019-04-21T10:09:50.069Z,99906.00
2019-04-21T10:11:57.007Z,99906.00
2019-04-21T10:14:03.227Z,99904.00
2019-04-21T10:16:40.667Z,99893.00
2019-04-21T10:18:46.141Z,99892.00
2019-04-21T10:20:51.844Z,99883.00
2019-04-21T10:22:57.509Z,99882.00
2019-04-21T10:25:04.730Z,99885.00
2019-04-21T10:27:12.771Z,99881.00
2019-04-21T10:29:24.508Z,99879.00
2019-04-21T10:31:24.944Z,99872.00
2019-04-21T10:33:30.610Z,99859.00
2019-04-21T10:35:37.092Z,99864.00
2019-04-21T10:37:53.625Z,99859.00
2019-04-21T10:39:49.737Z,99853.00
2019-04-21T10:41:55.280Z,99849.00
2019-04-21T10:44:01.094Z,99852.00
2019-04-21T10:46:07.137Z,99852.00
2019-04-21T10:48:12.783Z,99850.00
2019-04-21T10:50:18.435Z,99850.00
2019-04-21T10:52:42.766Z,99851.00
2019-04-21T10:55:08.327Z,99849.00
2019-04-21T10:56:54.781Z,99839.00
2019-04-21T10:59:00.373Z,99828.00
2019-04-21T11:01:19.225Z,99827.00
2019-04-21T11:03:44.741Z,99824.00
2019-04-21T11:05:50.830Z,99811.00
2019-04-21T11:08:09.046Z,99806.00
2019-04-21T11:10:04.471Z,99809.00
2019-04-21T11:12:10.224Z,99808.00
2019-04-21T11:14:17.588Z,99810.00
2019-04-21T11:16:23.604Z,99808.00
2019-04-21T11:18:28.680Z,99804.00
2019-04-21T11:20:35.147Z,99804.00
2019-04-21T11:22:41.584Z,99804.00
2019-04-21T11:24:47.093Z,99799.00
2019-04-21T11:26:52.304Z,99788.00
2019-04-21T11:28:58.892Z,99788.00
2019-04-21T11:31:04.859Z,99792.00
2019-04-21T11:33:11.233Z,99791.00
2019-04-21T11:35:17.151Z,99795.00
2019-04-21T11:37:26.387Z,99788.00
2019-04-21T11:39:42.020Z,99795.00
2019-04-21T11:41:39.461Z,99789.00
2019-04-21T11:43:45.378Z,99786.00
2019-04-21T11:45:50.973Z,99772.00
2019-04-21T11:48:14.425Z,99783.00
2019-04-21T11:50:19.561Z,99777.00
2019-04-21T11:52:25.072Z,99774.00
2019-04-21T11:54:30.988Z,99776.00
2019-04-21T11:56:37.016Z,99775.00
2019-04-21T11:58:43.816Z,99768.00
2019-04-21T12:00:53.880Z,99763.00
2019-04-21T12:02:59.601Z,99765.00
2019-04-21T12:05:05.510Z,99760.00
2019-04-21T12:07:11.438Z,99757.00
2019-04-21T12:09:17.074Z,99752.00
2019-04-21T12:11:23.247Z,99751.00
2019-04-21T12:13:30.046Z,99744.00
2019-04-21T12:15:36.782Z,99744.00
2019-04-21T12:17:41.935Z,99738.00
2019-04-21T12:19:48.540Z,99733.00
2019-04-21T12:22:05.302Z,99734.00
2019-04-21T12:24:01.089Z,99734.00
2019-04-21T12:26:07.385Z,99723.00
2019-04-21T12:28:14.131Z,99717.00
2019-04-21T12:30:19.875Z,99720.00
2019-04-21T12:32:40.118Z,99719.00
2019-04-21T12:34:48.511Z,99713.00
2019-04-21T12:36:52.840Z,99706.00
2019-04-21T12:39:01.736Z,99709.00
2019-04-21T12:41:06.649Z,99711.00
2019-04-21T12:43:12.606Z,99703.00
2019-04-21T12:45:19.273Z,99699.00
2019-04-21T12:47:25.890Z,99701.00
2019-04-21T12:49:31.838Z,99696.00
2019-04-21T12:51:37.693Z,99689.00
2019-04-21T12:53:43.479Z,99692.00
2019-04-21T12:55:49.906Z,99690.00
2019-04-21T12:57:55.575Z,99694.00
2019-04-21T13:00:00.806Z,99691.00
2019-04-21T13:02:07.384Z,99685.00
2019-04-21T13:04:13.496Z,99669.00
2019-04-21T13:06:19.447Z,99672.00
2019-04-21T13:08:25.054Z,99669.00
2019-04-21T13:10:30.579Z,99671.00
2019-04-21T13:12:36.143Z,99663.00
2019-04-21T13:14:42.116Z,99661.00
2019-04-21T13:16:48.052Z,99661.00
2019-04-21T13:18:53.452Z,99651.00
2019-04-21T13:21:00.954Z,99644.00
2019-04-21T13:23:06.425Z,99649.00
2019-04-21T13:25:13.959Z,99643.00
2019-04-21T13:27:20.655Z,99646.00
2019-04-21T13:29:26.056Z,99645.00
2019-04-21T13:31:32.057Z,99641.00
2019-04-21T13:33:37.916Z,99644.00
2019-04-21T13:35:44.814Z,99642.00
2019-04-21T13:37:50.671Z,99640.00
2019-04-21T13:40:53.032Z,99641.00
2019-04-21T13:42:47.667Z,99642.00
2019-04-21T13:44:50.853Z,99630.00
2019-04-21T13:46:56.636Z,99621.00
2019-04-21T13:49:03.171Z,99634.00
2019-04-21T13:51:09.128Z,99623.00
2019-04-21T13:53:16.546Z,99616.00
2019-04-21T13:55:25.774Z,99622.00
2019-04-21T13:57:32.421Z,99618.00
2019-04-21T13:59:38.447Z,99607.00
2019-04-21T14:01:43.810Z,99603.00
2019-04-21T14:03:49.502Z,99603.00
2019-04-21T14:05:56.174Z,99612.00
2019-04-21T14:08:03.329Z,99604.00
2019-04-21T14:10:10.602Z,99600.00
2019-04-21T14:12:17.122Z,99598.00
2019-04-21T14:14:22.327Z,99589.00
2019-04-21T14:16:28.057Z,99586.00
2019-04-21T14:18:34.204Z,99584.00
2019-04-21T14:20:39.742Z,99586.00
2019-04-21T14:22:46.458Z,99589.00
2019-04-21T14:24:52.088Z,99583.00
2019-04-21T14:26:58.386Z,99586.00
2019-04-21T14:29:03.684Z,99582.00
2019-04-21T14:31:10.370Z,99577.00
2019-04-21T14:33:16.303Z,99571.00
2019-04-21T14:35:22.801Z,99569.00
2019-04-21T14:37:28.712Z,99571.00
2019-04-21T14:39:35.722Z,99568.00
2019-04-21T14:41:42.249Z,99566.00
2019-04-21T14:43:48.090Z,99563.00
2019-04-21T14:46:04.226Z,99560.00
2019-04-21T14:48:27.481Z,99563.00
2019-04-21T14:50:52.530Z,99570.00
2019-04-21T14:53:29.697Z,99557.00
2019-04-21T14:55:37.278Z,99563.00
2019-04-21T14:57:43.218Z,99557.00
2019-04-21T14:59:49.069Z,99551.00
2019-04-21T15:01:55.743Z,99546.00
2019-04-21T15:04:01.613Z,99548.00
2019-04-21T15:06:07.482Z,99551.00
2019-04-21T15:08:13.413Z,99545.00
2019-04-21T15:10:23.806Z,99546.00
2019-04-21T15:12:27.855Z,99546.00
2019-04-21T15:14:33.817Z,99542.00
2019-04-21T15:16:38.998Z,99552.00
2019-04-21T15:18:44.568Z,99540.00
2019-04-21T15:20:50.577Z,99543.00
2019-04-21T15:22:56.586Z,99534.00
2019-04-21T15:25:02.782Z,99531.00
2019-04-21T15:27:09.238Z,99531.00
2019-04-21T15:29:15.190Z,99526.00
2019-04-21T15:31:28.712Z,99532.00
2019-04-21T15:33:28.711Z,99525.00
2019-04-21T15:35:35.272Z,99518.00
2019-04-21T15:37:41.974Z,99524.00
2019-04-21T15:39:48.839Z,99513.00
2019-04-21T15:41:54.558Z,99507.00
2019-04-21T15:44:02.643Z,99514.00
2019-04-21T15:46:07.115Z,99499.00
2019-04-21T15:48:12.341Z,99503.00
2019-04-21T15:50:19.579Z,99502.00
2019-04-21T15:52:27.720Z,99509.00
2019-04-21T15:54:34.391Z,99496.00
2019-04-21T15:56:49.072Z,99505.00
2019-04-21T15:59:06.565Z,99504.00
2019-04-21T16:01:34.939Z,99500.00
2019-04-21T16:03:40.672Z,99501.00
2019-04-21T16:05:46.729Z,99495.00
2019-04-21T16:07:52.108Z,99496.00
2019-04-21T16:09:57.714Z,99495.00
2019-04-21T16:12:04.065Z,99493.00
2019-04-21T16:14:10.270Z,99495.00
2019-04-21T16:16:16.723Z,99488.00
2019-04-21T16:18:22.529Z,99484.00
2019-04-21T16:20:28.093Z,99482.00
2019-04-21T16:22:34.867Z,99483.00
2019-04-21T16:24:42.014Z,99476.00
2019-04-21T16:26:48.769Z,99473.00
2019-04-21T16:28:55.276Z,99468.00
2019-04-21T16:31:00.630Z,99468.00
2019-04-21T16:33:06.074Z,99469.00
2019-04-21T16:35:14.375Z,99471.00
2019-04-21T16:37:19.496Z,99467.00
2019-04-21T16:39:25.359Z,99462.00
2019-04-21T16:41:32.114Z,99471.00
2019-04-21T16:43:37.724Z,99472.00
2019-04-21T16:45:44.371Z,99460.00
2019-04-21T16:47:53.378Z,99461.00
2019-04-21T16:49:57.995Z,99449.00
2019-04-21T16:52:20.287Z,99454.00
2019-04-21T16:54:29.215Z,99457.00
2019-04-21T16:56:54.105Z,99446.00
2019-04-21T16:59:18.938Z,99461.00
2019-04-21T17:01:29.156Z,99448.00
2019-04-21T17:03:34.601Z,99448.00
2019-04-21T17:05:40.490Z,99442.00
2019-04-21T17:07:47.116Z,99447.00
2019-04-21T17:09:52.711Z,99437.00
2019-04-21T17:12:01.837Z,99441.00
2019-04-21T17:14:05.771Z,99429.00
2019-04-21T17:16:40.283Z,99430.00
2019-04-21T17:18:33.140Z,99431.00
2019-04-21T17:20:38.144Z,99424.00
2019-04-21T17:22:33.606Z,99421.00
2019-04-21T17:24:40.284Z,99422.00
2019-04-21T17:26:46.450Z,99417.00
2019-04-21T17:28:52.766Z,99413.00
2019-04-21T17:30:58.374Z,99422.00
2019-04-21T17:33:03.864Z,99412.00
2019-04-21T17:35:10.243Z,99411.00
2019-04-21T17:37:15.419Z,99412.00
2019-04-21T17:39:20.867Z,99407.00
2019-04-21T17:41:35.379Z,99400.00
2019-04-21T17:43:33.874Z,99403.00
2019-04-21T17:45:39.394Z,99402.00
2019-04-21T17:47:52.466Z,99409.00
2019-04-21T17:50:09.477Z,99406.00
2019-04-21T17:52:48.166Z,99404.00
2019-04-21T17:54:50.778Z,99404.00
2019-04-21T17:57:16.614Z,99399.00
2019-04-21T17:59:28.053Z,99392.00
2019-04-21T18:01:32.237Z,99397.00
2019-04-21T18:03:46.032Z,99398.00
2019-04-21T18:05:42.571Z,99407.00
2019-04-21T18:07:50.140Z,99407.00
2019-04-21T18:12:08.052Z,99402.00
2019-04-21T18:13:58.028Z,99408.00
2019-04-21T18:16:13.457Z,99415.00
2019-04-21T18:18:12.492Z,99406.00
2019-04-21T18:20:25.883Z,99406.00
2019-04-21T18:22:51.275Z,99413.00
2019-04-21T18:25:03.938Z,99406.00
2019-04-21T18:27:07.430Z,99404.00
2019-04-21T18:29:11.771Z,99411.00
2019-04-21T18:31:16.936Z,99413.00
2019-04-21T18:33:42.675Z,99409.00
2019-04-21T18:36:38.394Z,99406.00
2019-04-21T18:39:10.317Z,99403.00
2019-04-21T18:41:03.650Z,99402.00
2019-04-21T18:46:29.491Z,99398.00
2019-04-21T18:48:49.686Z,99407.00
2019-04-21T18:51:13.950Z,99402.00
2019-04-21T18:53:36.521Z,99397.00
2019-04-21T18:55:36.195Z,99396.00
2019-04-21T18:57:42.376Z,99400.00
2019-04-21T18:59:45.522Z,99403.00
2019-04-21T19:01:56.520Z,99409.00
2019-04-21T19:03:56.258Z,99409.00
2019-04-21T19:06:09.784Z,99412.00
2019-04-21T19:10:43.934Z,99419.00
2019-04-21T19:13:09.138Z,99416.00
2019-04-21T19:14:46.353Z,99416.00
2019-04-21T19:17:04.416Z,99415.00
2019-04-21T19:19:31.684Z,99419.00
2019-04-21T19:21:10.122Z,99415.00
2019-04-21T19:23:19.205Z,99411.00
2019-04-21T19:27:28.116Z,99415.00
2019-04-21T19:29:32.560Z,99422.00
2019-04-21T19:31:48.207Z,99411.00
2019-04-21T19:33:43.975Z,99419.00
2019-04-21T19:35:37.491Z,99413.00
2019-04-21T19:37:49.681Z,99409.00
2019-04-21T19:40:01.772Z,99413.00
2019-04-21T19:42:08.658Z,99419.00
2019-04-21T19:44:24.710Z,99406.00
2019-04-21T19:46:28.149Z,99414.00
2019-04-21T19:48:44.495Z,99414.00
2019-04-21T19:50:47.122Z,99412.00
2019-04-21T19:52:44.055Z,99408.00
2019-04-21T19:54:44.884Z,99409.00
2019-04-21T19:56:47.076Z,99420.00
2019-04-21T19:58:53.026Z,99421.00
2019-04-21T20:00:59.651Z,99409.00
2019-04-21T20:03:06.243Z,99415.00
2019-04-21T20:05:20.238Z,99409.00
2019-04-21T20:07:32.874Z,99411.00
2019-04-21T20:09:40.618Z,99409.00
2019-04-21T20:11:48.728Z,99414.00
2019-04-21T20:14:27.606Z,99409.00
2019-04-21T20:16:07.897Z,99410.00
2019-04-21T20:18:08.954Z,99402.00
2019-04-21T20:20:03.711Z,99398.00
2019-04-21T20:22:09.229Z,99396.00
2019-04-21T20:24:19.609Z,99400.00
2019-04-21T20:26:30.412Z,99407.00
2019-04-21T20:28:43.956Z,99400.00
2019-04-21T20:30:58.325Z,99400.00
2019-04-21T20:33:04.519Z,99400.00
2019-04-21T20:35:15.559Z,99405.00
2019-04-21T20:37:14.800Z,99407.00
2019-04-21T20:39:13.868Z,99397.00
2019-04-21T20:41:29.740Z,99400.00
2019-04-21T20:43:44.541Z,99397.00
2019-04-21T20:45:56.316Z,99405.00
2019-04-21T20:47:43.302Z,99405.00
2019-04-21T20:49:59.865Z,99397.00
2019-04-21T20:52:10.781Z,99397.00
2019-04-21T20:54:16.003Z,99393.00
2019-04-21T20:56:13.220Z,99401.00
2019-04-21T20:58:30.892Z,99389.00
2019-04-21T21:00:45.872Z,99395.00
2019-04-21T21:02:49.271Z,99394.00
2019-04-21T21:04:43.003Z,99392.00
2019-04-21T21:07:03.279Z,99401.00
2019-04-21T21:09:07.361Z,99399.00
2019-04-21T21:11:07.962Z,99393.00
2019-04-21T21:13:26.467Z,99391.00
2019-04-21T21:15:26.152Z,99387.00
2019-04-21T21:17:50.265Z,99392.00
2019-04-21T21:19:47.322Z,99383.00
2019-04-21T21:21:44.205Z,99385.00
2019-04-21T21:23:53.532Z,99383.00
2019-04-21T21:26:09.988Z,99382.00
2019-04-21T21:28:02.966Z,99378.00
2019-04-21T21:30:14.538Z,99388.00
2019-04-21T21:32:27.315Z,99386.00
2019-04-21T21:34:41.378Z,99383.00
2019-04-21T21:36:43.160Z,99384.00
2019-04-21T21:38:52.228Z,99373.00
2019-04-21T21:40:49.639Z,99380.00
2019-04-21T21:42:46.127Z,99382.00
2019-04-21T21:45:00.166Z,99364.00
2019-04-21T21:47:11.974Z,99385.00
2019-04-21T21:49:24.795Z,99378.00
2019-04-21T21:51:22.800Z,99378.00
2019-04-21T21:53:24.841Z,99368.00
2019-04-21T21:55:27.755Z,99379.00
2019-04-21T21:57:40.496Z,99379.00
2019-04-21T21:59:42.186Z,99382.00
2019-04-21T22:01:52.017Z,99370.00
2019-04-21T22:04:05.052Z,99376.00
2019-04-21T22:06:07.874Z,99373.00
2019-04-21T22:08:10.295Z,99370.00
2019-04-21T22:10:16.012Z,99370.00
2019-04-21T22:12:22.178Z,99370.00
2019-04-21T22:14:34.038Z,99365.00
2019-04-21T22:16:45.524Z,99365.00
2019-04-21T22:19:05.643Z,99370.00
2019-04-21T22:21:03.281Z,99356.00
2019-04-21T22:23:03.149Z,99369.00
2019-04-21T22:25:09.658Z,99372.00
2019-04-21T22:27:09.562Z,99363.00
2019-04-21T22:29:15.955Z,99371.00
2019-04-21T22:31:27.795Z,99376.00
2019-04-21T22:33:34.434Z,99369.00
2019-04-21T22:35:42.496Z,99371.00
2019-04-21T22:37:56.048Z,99364.00
2019-04-21T22:40:04.751Z,99373.00
2019-04-21T22:42:05.355Z,99364.00
2019-04-21T22:44:04.802Z,99363.00
2019-04-21T22:46:12.433Z,99362.00
2019-04-21T22:48:21.742Z,99361.00
2019-04-21T22:50:32.878Z,99358.00
2019-04-21T22:52:39.295Z,99350.00
2019-04-21T22:54:46.692Z,99350.00
2019-04-21T22:56:59.300Z,99349.00
2019-04-21T22:58:58.963Z,99357.00
2019-04-21T23:01:06.013Z,99361.00
2019-04-21T23:03:16.370Z,99352.00
2019-04-21T23:05:22.528Z,99350.00
2019-04-21T23:07:27.830Z,99358.00
2019-04-21T23:09:33.347Z,99354.00
2019-04-21T23:11:43.678Z,99350.00
2019-04-21T23:13:55.008Z,99353.00
2019-04-21T23:15:57.289Z,99344.00
2019-04-21T23:18:20.455Z,99347.00
2019-04-21T23:20:29.662Z,99343.00
2019-04-21T23:22:32.602Z,99343.00
2019-04-21T23:24:45.643Z,99341.00
2019-04-21T23:26:43.431Z,99343.00
2019-04-21T23:28:56.904Z,99306.00
2019-04-21T23:31:00.782Z,99343.00
2019-04-21T23:32:58.316Z,99339.00
2019-04-21T23:35:10.622Z,99334.00
2019-04-21T23:37:10.583Z,99331.00
2019-04-21T23:39:15.863Z,99326.00
2019-04-21T23:41:19.456Z,99325.00
2019-04-21T23:43:28.216Z,99324.00
2019-04-21T23:45:38.075Z,99324.00
2019-04-21T23:47:50.842Z,99328.00
2019-04-21T23:49:56.639Z,99324.00
2019-04-21T23:52:00.836Z,99324.00
2019-04-21T23:54:01.809Z,99330.00
2019-04-21T23:56:07.577Z,99319.00
2019-04-21T23:58:21.383Z,99313.00
